sensor_id;sensor_type;location;lat;lon;timestamp;temperature;humidity
12634;DHT22;6382;48.614;8.880;2023-02-01T00:01:50;2.00;99.90
12634;DHT22;6382;48.614;8.880;2023-02-01T00:04:17;2.00;99.90
12634;DHT22;6382;48.614;8.880;2023-02-01T00:06:44;2.00;99.90
12634;DHT22;6382;48.614;8.880;2023-02-01T00:09:10;2.00;99.90
12634;DHT22;6382;48.614;8.880;2023-02-01T00:11:37;2.00;99.90
12634;DHT22;6382;48.614;8.880;2023-02-01T00:14:04;2.00;99.90
12634;DHT22;6382;48.614;8.880;2023-02-01T00:16:30;2.10;99.90
12634;DHT22;6382;48.614;8.880;2023-02-01T00:19:01;2.00;99.90
12634;DHT22;6382;48.614;8.880;2023-02-01T00:21:29;2.00;99.90
12634;DHT22;6382;48.614;8.880;2023-02-01T00:23:56;2.00;99.90
12634;DHT22;6382;48.614;8.880;2023-02-01T00:26:25;2.00;99.90
12634;DHT22;6382;48.614;8.880;2023-02-01T00:28:53;2.30;99.90
12634;DHT22;6382;48.614;8.880;2023-02-01T00:31:20;2.00;99.90
12634;DHT22;6382;48.614;8.880;2023-02-01T00:33:47;2.00;99.90
12634;DHT22;6382;48.614;8.880;2023-02-01T00:36:15;2.00;99.90
12634;DHT22;6382;48.614;8.880;2023-02-01T00:38:41;2.00;99.90
12634;DHT22;6382;48.614;8.880;2023-02-01T00:41:12;2.00;99.90
12634;DHT22;6382;48.614;8.880;2023-02-01T00:43:39;2.00;99.90
12634;DHT22;6382;48.614;8.880;2023-02-01T00:46:06;2.00;99.90
12634;DHT22;6382;48.614;8.880;2023-02-01T00:48:33;2.00;99.90
12634;DHT22;6382;48.614;8.880;2023-02-01T00:51:00;2.00;99.90
12634;DHT22;6382;48.614;8.880;2023-02-01T00:53:27;2.00;99.90
12634;DHT22;6382;48.614;8.880;2023-02-01T00:55:54;1.90;99.90
12634;DHT22;6382;48.614;8.880;2023-02-01T00:58:21;1.90;99.90
12634;DHT22;6382;48.614;8.880;2023-02-01T01:00:49;1.90;99.90
12634;DHT22;6382;48.614;8.880;2023-02-01T01:03:16;1.90;99.90
12634;DHT22;6382;48.614;8.880;2023-02-01T01:05:48;1.90;99.90
12634;DHT22;6382;48.614;8.880;2023-02-01T01:08:15;1.80;99.90
12634;DHT22;6382;48.614;8.880;2023-02-01T01:10:42;1.80;99.90
12634;DHT22;6382;48.614;8.880;2023-02-01T01:13:10;1.80;99.90
12634;DHT22;6382;48.614;8.880;2023-02-01T01:15:37;1.80;99.90
12634;DHT22;6382;48.614;8.880;2023-02-01T01:18:04;1.80;99.90
12634;DHT22;6382;48.614;8.880;2023-02-01T01:20:33;1.80;99.90
12634;DHT22;6382;48.614;8.880;2023-02-01T01:23:01;1.90;99.90
12634;DHT22;6382;48.614;8.880;2023-02-01T01:25:27;1.80;99.90
12634;DHT22;6382;48.614;8.880;2023-02-01T01:27:54;1.90;99.90
12634;DHT22;6382;48.614;8.880;2023-02-01T01:30:21;4.00;99.90
12634;DHT22;6382;48.614;8.880;2023-02-01T01:32:48;1.90;99.90
12634;DHT22;6382;48.614;8.880;2023-02-01T01:35:15;1.90;99.90
12634;DHT22;6382;48.614;8.880;2023-02-01T01:37:41;1.90;99.90
12634;DHT22;6382;48.614;8.880;2023-02-01T01:40:08;1.90;99.90
12634;DHT22;6382;48.614;8.880;2023-02-01T01:42:39;1.90;99.90
12634;DHT22;6382;48.614;8.880;2023-02-01T01:45:07;1.90;99.90
12634;DHT22;6382;48.614;8.880;2023-02-01T01:47:44;1.90;99.90
12634;DHT22;6382;48.614;8.880;2023-02-01T01:50:15;2.00;99.90
12634;DHT22;6382;48.614;8.880;2023-02-01T01:52:43;2.00;99.90
12634;DHT22;6382;48.614;8.880;2023-02-01T01:55:13;1.90;99.90
12634;DHT22;6382;48.614;8.880;2023-02-01T01:57:42;1.90;99.90
12634;DHT22;6382;48.614;8.880;2023-02-01T02:00:14;2.00;99.90
12634;DHT22;6382;48.614;8.880;2023-02-01T02:02:42;1.90;99.90
12634;DHT22;6382;48.614;8.880;2023-02-01T02:05:10;1.90;99.90
12634;DHT22;6382;48.614;8.880;2023-02-01T02:07:37;2.00;99.90
12634;DHT22;6382;48.614;8.880;2023-02-01T02:10:07;2.00;99.90
12634;DHT22;6382;48.614;8.880;2023-02-01T02:12:38;2.00;99.90
12634;DHT22;6382;48.614;8.880;2023-02-01T02:15:06;2.00;99.90
12634;DHT22;6382;48.614;8.880;2023-02-01T02:22:49;2.00;99.90
12634;DHT22;6382;48.614;8.880;2023-02-01T02:30:51;2.10;99.90
12634;DHT22;6382;48.614;8.880;2023-02-01T02:33:36;2.10;99.90
12634;DHT22;6382;48.614;8.880;2023-02-01T02:38:42;2.10;99.90
12634;DHT22;6382;48.614;8.880;2023-02-01T02:41:19;2.10;99.90
12634;DHT22;6382;48.614;8.880;2023-02-01T02:44:08;2.10;99.90
12634;DHT22;6382;48.614;8.880;2023-02-01T02:46:55;2.10;99.90
12634;DHT22;6382;48.614;8.880;2023-02-01T02:49:48;2.10;99.90
12634;DHT22;6382;48.614;8.880;2023-02-01T02:52:37;2.20;99.90
12634;DHT22;6382;48.614;8.880;2023-02-01T02:55:24;2.20;99.90
12634;DHT22;6382;48.614;8.880;2023-02-01T02:57:53;2.20;99.90
12634;DHT22;6382;48.614;8.880;2023-02-01T03:00:38;2.20;99.90
12634;DHT22;6382;48.614;8.880;2023-02-01T03:03:24;2.20;99.90
12634;DHT22;6382;48.614;8.880;2023-02-01T03:06:13;4.10;99.90
12634;DHT22;6382;48.614;8.880;2023-02-01T03:08:41;2.20;99.90
12634;DHT22;6382;48.614;8.880;2023-02-01T03:11:13;2.10;99.90
12634;DHT22;6382;48.614;8.880;2023-02-01T03:13:53;2.20;99.90
12634;DHT22;6382;48.614;8.880;2023-02-01T03:16:22;2.10;99.90
12634;DHT22;6382;48.614;8.880;2023-02-01T03:18:54;2.10;99.90
12634;DHT22;6382;48.614;8.880;2023-02-01T03:21:40;2.10;99.90
12634;DHT22;6382;48.614;8.880;2023-02-01T03:24:09;2.20;99.90
12634;DHT22;6382;48.614;8.880;2023-02-01T03:26:38;3.70;99.90
12634;DHT22;6382;48.614;8.880;2023-02-01T03:29:17;2.10;99.90
12634;DHT22;6382;48.614;8.880;2023-02-01T03:31:45;4.20;99.90
12634;DHT22;6382;48.614;8.880;2023-02-01T03:34:12;2.10;99.90
12634;DHT22;6382;48.614;8.880;2023-02-01T03:36:40;2.10;99.90
12634;DHT22;6382;48.614;8.880;2023-02-01T03:39:23;2.10;99.90
12634;DHT22;6382;48.614;8.880;2023-02-01T03:44:38;2.10;99.90
12634;DHT22;6382;48.614;8.880;2023-02-01T03:47:18;2.10;99.90
12634;DHT22;6382;48.614;8.880;2023-02-01T03:49:48;2.10;99.90
12634;DHT22;6382;48.614;8.880;2023-02-01T03:52:28;2.10;99.90
12634;DHT22;6382;48.614;8.880;2023-02-01T03:54:55;2.10;99.90
12634;DHT22;6382;48.614;8.880;2023-02-01T03:57:27;2.10;99.90
12634;DHT22;6382;48.614;8.880;2023-02-01T03:59:55;2.10;99.90
12634;DHT22;6382;48.614;8.880;2023-02-01T04:02:29;2.10;99.90
12634;DHT22;6382;48.614;8.880;2023-02-01T04:04:56;2.10;99.90
12634;DHT22;6382;48.614;8.880;2023-02-01T04:07:22;2.10;99.90
12634;DHT22;6382;48.614;8.880;2023-02-01T04:09:49;2.10;99.90
12634;DHT22;6382;48.614;8.880;2023-02-01T04:12:15;2.10;99.90
12634;DHT22;6382;48.614;8.880;2023-02-01T04:14:42;4.10;99.90
12634;DHT22;6382;48.614;8.880;2023-02-01T04:17:09;2.20;99.90
12634;DHT22;6382;48.614;8.880;2023-02-01T04:19:35;2.10;99.90
12634;DHT22;6382;48.614;8.880;2023-02-01T04:22:02;2.10;99.90
12634;DHT22;6382;48.614;8.880;2023-02-01T04:24:29;2.20;99.90
12634;DHT22;6382;48.614;8.880;2023-02-01T04:26:55;2.10;99.90
12634;DHT22;6382;48.614;8.880;2023-02-01T04:29:22;2.20;99.90
12634;DHT22;6382;48.614;8.880;2023-02-01T04:31:48;2.20;99.90
12634;DHT22;6382;48.614;8.880;2023-02-01T04:34:16;2.20;99.90
12634;DHT22;6382;48.614;8.880;2023-02-01T04:36:42;2.30;99.90
12634;DHT22;6382;48.614;8.880;2023-02-01T04:39:12;2.30;99.90
12634;DHT22;6382;48.614;8.880;2023-02-01T04:41:39;4.20;99.90
12634;DHT22;6382;48.614;8.880;2023-02-01T04:44:05;2.30;99.90
12634;DHT22;6382;48.614;8.880;2023-02-01T04:46:32;2.30;99.90
12634;DHT22;6382;48.614;8.880;2023-02-01T04:48:59;2.30;99.90
12634;DHT22;6382;48.614;8.880;2023-02-01T04:51:25;2.20;99.90
12634;DHT22;6382;48.614;8.880;2023-02-01T04:53:52;2.30;99.90
12634;DHT22;6382;48.614;8.880;2023-02-01T04:56:18;2.30;99.90
12634;DHT22;6382;48.614;8.880;2023-02-01T04:58:45;2.30;99.90
12634;DHT22;6382;48.614;8.880;2023-02-01T05:01:12;2.30;99.90
12634;DHT22;6382;48.614;8.880;2023-02-01T05:03:38;2.30;99.90
12634;DHT22;6382;48.614;8.880;2023-02-01T05:06:05;5.20;99.90
12634;DHT22;6382;48.614;8.880;2023-02-01T05:08:32;3.50;99.90
12634;DHT22;6382;48.614;8.880;2023-02-01T05:10:59;2.20;99.90
12634;DHT22;6382;48.614;8.880;2023-02-01T05:13:28;2.30;99.90
12634;DHT22;6382;48.614;8.880;2023-02-01T05:16:14;2.30;99.90
12634;DHT22;6382;48.614;8.880;2023-02-01T05:18:41;2.30;99.90
12634;DHT22;6382;48.614;8.880;2023-02-01T05:21:07;2.30;99.90
12634;DHT22;6382;48.614;8.880;2023-02-01T05:23:34;2.30;99.90
12634;DHT22;6382;48.614;8.880;2023-02-01T05:26:21;2.30;99.90
12634;DHT22;6382;48.614;8.880;2023-02-01T05:28:47;2.30;99.90
12634;DHT22;6382;48.614;8.880;2023-02-01T05:31:14;2.30;99.90
12634;DHT22;6382;48.614;8.880;2023-02-01T05:33:41;2.30;99.90
12634;DHT22;6382;48.614;8.880;2023-02-01T05:36:07;2.30;99.90
12634;DHT22;6382;48.614;8.880;2023-02-01T05:38:34;2.30;99.90
12634;DHT22;6382;48.614;8.880;2023-02-01T05:41:00;2.30;99.90
12634;DHT22;6382;48.614;8.880;2023-02-01T05:43:27;2.40;99.90
12634;DHT22;6382;48.614;8.880;2023-02-01T05:45:54;2.40;99.90
12634;DHT22;6382;48.614;8.880;2023-02-01T05:48:20;2.40;99.90
12634;DHT22;6382;48.614;8.880;2023-02-01T05:50:47;2.40;99.90
12634;DHT22;6382;48.614;8.880;2023-02-01T05:53:13;2.40;99.90
12634;DHT22;6382;48.614;8.880;2023-02-01T05:55:41;2.40;99.90
12634;DHT22;6382;48.614;8.880;2023-02-01T05:58:07;2.40;99.90
12634;DHT22;6382;48.614;8.880;2023-02-01T06:00:34;2.40;99.90
12634;DHT22;6382;48.614;8.880;2023-02-01T06:03:01;2.40;99.90
12634;DHT22;6382;48.614;8.880;2023-02-01T06:05:28;2.40;99.90
12634;DHT22;6382;48.614;8.880;2023-02-01T06:07:54;2.40;99.90
12634;DHT22;6382;48.614;8.880;2023-02-01T06:10:21;2.40;99.90
12634;DHT22;6382;48.614;8.880;2023-02-01T06:12:48;2.40;99.90
12634;DHT22;6382;48.614;8.880;2023-02-01T06:15:15;2.40;99.90
12634;DHT22;6382;48.614;8.880;2023-02-01T06:17:43;2.40;99.90
12634;DHT22;6382;48.614;8.880;2023-02-01T06:20:10;2.50;99.90
12634;DHT22;6382;48.614;8.880;2023-02-01T06:22:37;2.40;99.90
12634;DHT22;6382;48.614;8.880;2023-02-01T06:25:04;2.40;99.90
12634;DHT22;6382;48.614;8.880;2023-02-01T06:27:31;2.40;99.90
12634;DHT22;6382;48.614;8.880;2023-02-01T06:29:58;2.40;99.90
12634;DHT22;6382;48.614;8.880;2023-02-01T06:32:25;2.40;99.90
12634;DHT22;6382;48.614;8.880;2023-02-01T06:34:51;2.40;99.90
12634;DHT22;6382;48.614;8.880;2023-02-01T06:37:22;2.40;99.90
12634;DHT22;6382;48.614;8.880;2023-02-01T06:39:50;2.40;99.90
12634;DHT22;6382;48.614;8.880;2023-02-01T06:42:17;2.40;99.90
12634;DHT22;6382;48.614;8.880;2023-02-01T06:44:44;2.40;99.90
12634;DHT22;6382;48.614;8.880;2023-02-01T06:47:10;2.50;99.90
12634;DHT22;6382;48.614;8.880;2023-02-01T06:49:37;2.40;99.90
12634;DHT22;6382;48.614;8.880;2023-02-01T06:52:04;2.40;99.90
12634;DHT22;6382;48.614;8.880;2023-02-01T06:54:30;2.40;99.90
12634;DHT22;6382;48.614;8.880;2023-02-01T06:56:59;2.40;99.90
12634;DHT22;6382;48.614;8.880;2023-02-01T06:59:26;2.40;99.90
12634;DHT22;6382;48.614;8.880;2023-02-01T07:01:53;2.30;99.90
12634;DHT22;6382;48.614;8.880;2023-02-01T07:04:19;2.40;99.90
12634;DHT22;6382;48.614;8.880;2023-02-01T07:06:46;2.30;99.90
12634;DHT22;6382;48.614;8.880;2023-02-01T07:09:13;2.40;99.90
12634;DHT22;6382;48.614;8.880;2023-02-01T07:11:40;2.30;99.90
12634;DHT22;6382;48.614;8.880;2023-02-01T07:14:10;2.40;99.90
12634;DHT22;6382;48.614;8.880;2023-02-01T07:16:37;2.40;99.90
12634;DHT22;6382;48.614;8.880;2023-02-01T07:19:03;2.40;99.90
12634;DHT22;6382;48.614;8.880;2023-02-01T07:21:30;2.50;99.90
12634;DHT22;6382;48.614;8.880;2023-02-01T07:23:57;2.50;99.90
12634;DHT22;6382;48.614;8.880;2023-02-01T07:26:24;2.50;99.90
12634;DHT22;6382;48.614;8.880;2023-02-01T07:28:51;4.40;99.90
12634;DHT22;6382;48.614;8.880;2023-02-01T07:31:18;2.50;99.90
12634;DHT22;6382;48.614;8.880;2023-02-01T07:33:47;2.50;99.90
12634;DHT22;6382;48.614;8.880;2023-02-01T07:36:15;2.50;99.90
12634;DHT22;6382;48.614;8.880;2023-02-01T07:38:42;2.50;99.90
12634;DHT22;6382;48.614;8.880;2023-02-01T07:41:09;2.60;99.90
12634;DHT22;6382;48.614;8.880;2023-02-01T07:43:36;2.60;99.90
12634;DHT22;6382;48.614;8.880;2023-02-01T07:46:03;2.60;99.90
12634;DHT22;6382;48.614;8.880;2023-02-01T07:48:30;2.50;99.90
12634;DHT22;6382;48.614;8.880;2023-02-01T07:50:58;2.60;99.90
12634;DHT22;6382;48.614;8.880;2023-02-01T07:53:25;2.70;99.90
12634;DHT22;6382;48.614;8.880;2023-02-01T07:55:52;2.70;99.90
12634;DHT22;6382;48.614;8.880;2023-02-01T07:58:18;2.80;99.90
12634;DHT22;6382;48.614;8.880;2023-02-01T08:00:45;2.90;99.90
12634;DHT22;6382;48.614;8.880;2023-02-01T08:03:30;3.00;99.90
12634;DHT22;6382;48.614;8.880;2023-02-01T08:05:57;3.00;99.90
12634;DHT22;6382;48.614;8.880;2023-02-01T08:08:23;3.10;99.90
12634;DHT22;6382;48.614;8.880;2023-02-01T08:10:50;3.20;99.90
12634;DHT22;6382;48.614;8.880;2023-02-01T08:13:17;3.30;99.90
12634;DHT22;6382;48.614;8.880;2023-02-01T08:15:43;3.30;99.90
12634;DHT22;6382;48.614;8.880;2023-02-01T08:18:10;3.40;99.90
12634;DHT22;6382;48.614;8.880;2023-02-01T08:20:37;3.40;99.90
12634;DHT22;6382;48.614;8.880;2023-02-01T08:23:10;3.50;99.90
12634;DHT22;6382;48.614;8.880;2023-02-01T08:25:36;3.40;99.90
12634;DHT22;6382;48.614;8.880;2023-02-01T08:28:03;3.50;99.90
12634;DHT22;6382;48.614;8.880;2023-02-01T08:30:30;3.50;99.90
12634;DHT22;6382;48.614;8.880;2023-02-01T08:32:57;3.60;99.90
12634;DHT22;6382;48.614;8.880;2023-02-01T08:35:23;3.60;99.90
12634;DHT22;6382;48.614;8.880;2023-02-01T08:38:08;3.70;99.90
12634;DHT22;6382;48.614;8.880;2023-02-01T08:40:34;3.80;99.90
12634;DHT22;6382;48.614;8.880;2023-02-01T08:43:01;3.80;99.90
12634;DHT22;6382;48.614;8.880;2023-02-01T08:45:28;3.80;99.90
12634;DHT22;6382;48.614;8.880;2023-02-01T08:47:56;3.80;99.90
12634;DHT22;6382;48.614;8.880;2023-02-01T08:50:23;3.90;99.90
12634;DHT22;6382;48.614;8.880;2023-02-01T08:52:51;4.00;99.90
12634;DHT22;6382;48.614;8.880;2023-02-01T08:55:18;3.90;99.90
12634;DHT22;6382;48.614;8.880;2023-02-01T08:57:45;4.00;99.90
12634;DHT22;6382;48.614;8.880;2023-02-01T09:00:13;4.00;99.90
12634;DHT22;6382;48.614;8.880;2023-02-01T09:02:39;4.00;99.90
12634;DHT22;6382;48.614;8.880;2023-02-01T09:05:06;6.30;99.90
12634;DHT22;6382;48.614;8.880;2023-02-01T09:07:33;4.00;99.90
12634;DHT22;6382;48.614;8.880;2023-02-01T09:10:00;4.00;99.90
12634;DHT22;6382;48.614;8.880;2023-02-01T09:12:27;4.10;99.90
12634;DHT22;6382;48.614;8.880;2023-02-01T09:14:55;4.10;99.90
12634;DHT22;6382;48.614;8.880;2023-02-01T09:17:22;4.00;99.90
12634;DHT22;6382;48.614;8.880;2023-02-01T09:19:49;4.10;99.90
12634;DHT22;6382;48.614;8.880;2023-02-01T09:22:15;4.10;99.90
12634;DHT22;6382;48.614;8.880;2023-02-01T09:24:42;4.10;99.90
12634;DHT22;6382;48.614;8.880;2023-02-01T09:27:09;4.10;99.90
12634;DHT22;6382;48.614;8.880;2023-02-01T09:29:36;4.10;99.90
12634;DHT22;6382;48.614;8.880;2023-02-01T09:32:03;4.10;99.90
12634;DHT22;6382;48.614;8.880;2023-02-01T09:34:30;4.00;99.90
12634;DHT22;6382;48.614;8.880;2023-02-01T09:36:57;4.10;99.90
12634;DHT22;6382;48.614;8.880;2023-02-01T09:39:23;4.00;99.90
12634;DHT22;6382;48.614;8.880;2023-02-01T09:41:53;4.00;99.90
12634;DHT22;6382;48.614;8.880;2023-02-01T09:44:29;4.10;99.90
12634;DHT22;6382;48.614;8.880;2023-02-01T09:47:10;4.00;99.90
12634;DHT22;6382;48.614;8.880;2023-02-01T09:49:39;4.10;99.90
12634;DHT22;6382;48.614;8.880;2023-02-01T09:52:11;5.50;99.90
12634;DHT22;6382;48.614;8.880;2023-02-01T09:54:42;4.10;99.90
12634;DHT22;6382;48.614;8.880;2023-02-01T09:57:16;4.10;99.90
12634;DHT22;6382;48.614;8.880;2023-02-01T09:59:43;4.10;99.90
12634;DHT22;6382;48.614;8.880;2023-02-01T10:02:22;4.20;99.90
12634;DHT22;6382;48.614;8.880;2023-02-01T10:04:49;4.30;99.90
12634;DHT22;6382;48.614;8.880;2023-02-01T10:07:22;4.30;99.90
12634;DHT22;6382;48.614;8.880;2023-02-01T10:09:58;4.20;99.90
12634;DHT22;6382;48.614;8.880;2023-02-01T10:12:33;4.30;99.90
12634;DHT22;6382;48.614;8.880;2023-02-01T10:18:03;4.30;99.90
12634;DHT22;6382;48.614;8.880;2023-02-01T10:26:03;4.40;99.90
12634;DHT22;6382;48.614;8.880;2023-02-01T10:28:31;4.50;99.90
12634;DHT22;6382;48.614;8.880;2023-02-01T10:31:01;4.50;99.90
12634;DHT22;6382;48.614;8.880;2023-02-01T10:38:43;4.50;99.90
12634;DHT22;6382;48.614;8.880;2023-02-01T10:41:55;4.50;99.90
12634;DHT22;6382;48.614;8.880;2023-02-01T10:43:57;4.50;99.90
12634;DHT22;6382;48.614;8.880;2023-02-01T10:46:25;4.50;99.90
12634;DHT22;6382;48.614;8.880;2023-02-01T10:48:52;4.50;99.90
12634;DHT22;6382;48.614;8.880;2023-02-01T10:51:21;4.50;99.90
12634;DHT22;6382;48.614;8.880;2023-02-01T10:54:00;4.50;99.90
12634;DHT22;6382;48.614;8.880;2023-02-01T10:56:28;4.50;99.90
12634;DHT22;6382;48.614;8.880;2023-02-01T10:59:02;4.50;99.90
12634;DHT22;6382;48.614;8.880;2023-02-01T11:01:42;4.50;99.90
12634;DHT22;6382;48.614;8.880;2023-02-01T11:04:15;4.50;99.90
12634;DHT22;6382;48.614;8.880;2023-02-01T11:06:46;4.50;99.90
12634;DHT22;6382;48.614;8.880;2023-02-01T11:14:39;4.50;99.90
12634;DHT22;6382;48.614;8.880;2023-02-01T11:17:16;4.50;99.90
12634;DHT22;6382;48.614;8.880;2023-02-01T11:19:45;4.50;99.90
12634;DHT22;6382;48.614;8.880;2023-02-01T11:22:12;4.40;99.90
12634;DHT22;6382;48.614;8.880;2023-02-01T11:24:39;4.40;99.90
12634;DHT22;6382;48.614;8.880;2023-02-01T11:27:12;4.40;99.90
12634;DHT22;6382;48.614;8.880;2023-02-01T11:29:53;4.50;99.90
12634;DHT22;6382;48.614;8.880;2023-02-01T11:32:21;4.50;99.90
12634;DHT22;6382;48.614;8.880;2023-02-01T11:34:51;4.60;99.90
12634;DHT22;6382;48.614;8.880;2023-02-01T11:37:20;4.70;99.90
12634;DHT22;6382;48.614;8.880;2023-02-01T11:39:57;4.80;99.90
12634;DHT22;6382;48.614;8.880;2023-02-01T11:42:24;4.80;99.90
12634;DHT22;6382;48.614;8.880;2023-02-01T11:44:51;4.90;99.90
12634;DHT22;6382;48.614;8.880;2023-02-01T11:47:40;5.00;99.90
12634;DHT22;6382;48.614;8.880;2023-02-01T11:50:15;4.90;99.90
12634;DHT22;6382;48.614;8.880;2023-02-01T11:55:29;5.00;99.90
12634;DHT22;6382;48.614;8.880;2023-02-01T11:58:04;5.00;99.90
12634;DHT22;6382;48.614;8.880;2023-02-01T12:09:07;4.90;99.90
12634;DHT22;6382;48.614;8.880;2023-02-01T12:16:43;4.80;99.90
12634;DHT22;6382;48.614;8.880;2023-02-01T12:24:42;5.00;99.90
12634;DHT22;6382;48.614;8.880;2023-02-01T12:38:07;4.80;99.90
12634;DHT22;6382;48.614;8.880;2023-02-01T12:43:34;2.50;99.90
12634;DHT22;6382;48.614;8.880;2023-02-01T12:46:04;4.60;99.90
12634;DHT22;6382;48.614;8.880;2023-02-01T12:51:15;5.60;99.90
12634;DHT22;6382;48.614;8.880;2023-02-01T12:53:47;4.60;99.90
12634;DHT22;6382;48.614;8.880;2023-02-01T12:59:03;4.60;99.90
12634;DHT22;6382;48.614;8.880;2023-02-01T13:01:39;4.60;99.90
12634;DHT22;6382;48.614;8.880;2023-02-01T13:04:14;4.60;99.90
12634;DHT22;6382;48.614;8.880;2023-02-01T13:09:34;2.30;99.90
12634;DHT22;6382;48.614;8.880;2023-02-01T13:12:09;4.60;99.90
12634;DHT22;6382;48.614;8.880;2023-02-01T13:17:08;4.60;99.90
12634;DHT22;6382;48.614;8.880;2023-02-01T13:22:07;4.60;99.90
12634;DHT22;6382;48.614;8.880;2023-02-01T13:24:39;4.60;99.90
12634;DHT22;6382;48.614;8.880;2023-02-01T13:27:08;4.60;99.90
12634;DHT22;6382;48.614;8.880;2023-02-01T13:29:36;4.50;99.90
12634;DHT22;6382;48.614;8.880;2023-02-01T13:41:09;4.30;99.90
12634;DHT22;6382;48.614;8.880;2023-02-01T13:43:41;4.40;99.90
12634;DHT22;6382;48.614;8.880;2023-02-01T13:46:10;6.00;99.90
12634;DHT22;6382;48.614;8.880;2023-02-01T13:48:47;4.50;99.90
12634;DHT22;6382;48.614;8.880;2023-02-01T13:51:14;4.50;99.90
12634;DHT22;6382;48.614;8.880;2023-02-01T13:53:48;4.60;99.90
12634;DHT22;6382;48.614;8.880;2023-02-01T13:56:17;4.60;99.90
12634;DHT22;6382;48.614;8.880;2023-02-01T13:58:45;4.70;99.90
12634;DHT22;6382;48.614;8.880;2023-02-01T14:03:48;4.70;99.90
12634;DHT22;6382;48.614;8.880;2023-02-01T14:09:09;4.70;99.90
12634;DHT22;6382;48.614;8.880;2023-02-01T14:16:58;4.80;99.90
12634;DHT22;6382;48.614;8.880;2023-02-01T14:19:28;4.80;99.90
12634;DHT22;6382;48.614;8.880;2023-02-01T14:21:56;4.80;99.90
12634;DHT22;6382;48.614;8.880;2023-02-01T14:24:26;4.80;99.90
12634;DHT22;6382;48.614;8.880;2023-02-01T14:26:53;4.80;99.90
12634;DHT22;6382;48.614;8.880;2023-02-01T14:29:42;4.80;99.90
12634;DHT22;6382;48.614;8.880;2023-02-01T14:32:16;4.80;99.90
12634;DHT22;6382;48.614;8.880;2023-02-01T14:47:42;4.70;99.90
12634;DHT22;6382;48.614;8.880;2023-02-01T14:52:37;4.60;99.90
12634;DHT22;6382;48.614;8.880;2023-02-01T14:55:20;4.70;99.90
12634;DHT22;6382;48.614;8.880;2023-02-01T14:57:48;4.70;99.90
12634;DHT22;6382;48.614;8.880;2023-02-01T15:00:26;4.70;99.90
12634;DHT22;6382;48.614;8.880;2023-02-01T15:02:53;4.70;99.90
12634;DHT22;6382;48.614;8.880;2023-02-01T15:05:41;4.70;99.90
12634;DHT22;6382;48.614;8.880;2023-02-01T15:08:28;4.70;99.90
12634;DHT22;6382;48.614;8.880;2023-02-01T15:10:53;5.20;99.90
12634;DHT22;6382;48.614;8.880;2023-02-01T15:13:21;4.60;99.90
12634;DHT22;6382;48.614;8.880;2023-02-01T15:18:30;4.60;99.90
12634;DHT22;6382;48.614;8.880;2023-02-01T15:21:01;4.50;99.90
12634;DHT22;6382;48.614;8.880;2023-02-01T15:23:48;4.50;99.90
12634;DHT22;6382;48.614;8.880;2023-02-01T15:26:25;4.50;99.90
12634;DHT22;6382;48.614;8.880;2023-02-01T15:28:52;4.50;99.90
12634;DHT22;6382;48.614;8.880;2023-02-01T15:31:30;4.40;99.90
12634;DHT22;6382;48.614;8.880;2023-02-01T15:33:57;4.40;99.90
12634;DHT22;6382;48.614;8.880;2023-02-01T15:36:24;4.40;99.90
12634;DHT22;6382;48.614;8.880;2023-02-01T15:41:39;4.30;99.90
12634;DHT22;6382;48.614;8.880;2023-02-01T15:46:42;4.30;99.90
12634;DHT22;6382;48.614;8.880;2023-02-01T15:49:18;4.30;99.90
12634;DHT22;6382;48.614;8.880;2023-02-01T15:51:46;4.30;99.90
12634;DHT22;6382;48.614;8.880;2023-02-01T15:54:17;6.10;99.90
12634;DHT22;6382;48.614;8.880;2023-02-01T15:56:55;4.30;99.90
12634;DHT22;6382;48.614;8.880;2023-02-01T15:59:23;4.20;99.90
12634;DHT22;6382;48.614;8.880;2023-02-01T16:01:50;4.30;99.90
12634;DHT22;6382;48.614;8.880;2023-02-01T16:06:49;4.20;99.90
12634;DHT22;6382;48.614;8.880;2023-02-01T16:09:17;4.20;99.90
12634;DHT22;6382;48.614;8.880;2023-02-01T16:14:13;4.10;99.90
12634;DHT22;6382;48.614;8.880;2023-02-01T16:16:40;4.10;99.90
12634;DHT22;6382;48.614;8.880;2023-02-01T16:19:07;4.10;99.90
12634;DHT22;6382;48.614;8.880;2023-02-01T16:21:33;4.00;99.90
12634;DHT22;6382;48.614;8.880;2023-02-01T16:24:00;4.00;99.90
12634;DHT22;6382;48.614;8.880;2023-02-01T16:26:31;3.90;99.90
12634;DHT22;6382;48.614;8.880;2023-02-01T16:28:58;3.90;99.90
12634;DHT22;6382;48.614;8.880;2023-02-01T16:31:26;3.80;99.90
12634;DHT22;6382;48.614;8.880;2023-02-01T16:33:54;3.80;99.90
12634;DHT22;6382;48.614;8.880;2023-02-01T16:36:20;3.70;99.90
12634;DHT22;6382;48.614;8.880;2023-02-01T16:38:48;3.80;99.90
12634;DHT22;6382;48.614;8.880;2023-02-01T16:41:19;3.70;99.90
12634;DHT22;6382;48.614;8.880;2023-02-01T16:43:50;3.70;99.90
12634;DHT22;6382;48.614;8.880;2023-02-01T16:46:18;3.60;99.90
12634;DHT22;6382;48.614;8.880;2023-02-01T16:48:54;3.60;99.90
12634;DHT22;6382;48.614;8.880;2023-02-01T16:51:21;3.60;99.90
12634;DHT22;6382;48.614;8.880;2023-02-01T16:53:49;3.60;99.90
12634;DHT22;6382;48.614;8.880;2023-02-01T16:58:47;3.60;99.90
12634;DHT22;6382;48.614;8.880;2023-02-01T17:01:14;3.60;99.90
12634;DHT22;6382;48.614;8.880;2023-02-01T17:03:42;3.60;99.90
12634;DHT22;6382;48.614;8.880;2023-02-01T17:06:10;3.30;99.90
12634;DHT22;6382;48.614;8.880;2023-02-01T17:08:45;3.60;99.90
12634;DHT22;6382;48.614;8.880;2023-02-01T17:11:12;3.60;99.90
12634;DHT22;6382;48.614;8.880;2023-02-01T17:13:39;3.70;99.90
12634;DHT22;6382;48.614;8.880;2023-02-01T17:18:44;3.60;99.90
12634;DHT22;6382;48.614;8.880;2023-02-01T17:21:13;3.60;99.90
12634;DHT22;6382;48.614;8.880;2023-02-01T17:23:39;3.60;99.90
12634;DHT22;6382;48.614;8.880;2023-02-01T17:26:08;3.60;99.90
12634;DHT22;6382;48.614;8.880;2023-02-01T17:28:35;3.60;99.90
12634;DHT22;6382;48.614;8.880;2023-02-01T17:31:01;3.70;99.90
12634;DHT22;6382;48.614;8.880;2023-02-01T17:33:33;3.70;99.90
12634;DHT22;6382;48.614;8.880;2023-02-01T17:36:02;3.70;99.90
12634;DHT22;6382;48.614;8.880;2023-02-01T17:38:29;3.60;99.90
12634;DHT22;6382;48.614;8.880;2023-02-01T17:40:56;3.60;99.90
12634;DHT22;6382;48.614;8.880;2023-02-01T17:43:23;3.70;99.90
12634;DHT22;6382;48.614;8.880;2023-02-01T17:48:26;3.70;99.90
12634;DHT22;6382;48.614;8.880;2023-02-01T17:50:54;3.70;99.90
12634;DHT22;6382;48.614;8.880;2023-02-01T17:53:24;3.70;99.90
12634;DHT22;6382;48.614;8.880;2023-02-01T17:55:51;3.70;99.90
12634;DHT22;6382;48.614;8.880;2023-02-01T17:58:19;3.70;99.90
12634;DHT22;6382;48.614;8.880;2023-02-01T18:00:47;3.60;99.90
12634;DHT22;6382;48.614;8.880;2023-02-01T18:03:21;3.50;99.90
12634;DHT22;6382;48.614;8.880;2023-02-01T18:05:49;3.50;99.90
12634;DHT22;6382;48.614;8.880;2023-02-01T18:08:21;3.50;99.90
12634;DHT22;6382;48.614;8.880;2023-02-01T18:10:49;3.50;99.90
12634;DHT22;6382;48.614;8.880;2023-02-01T18:13:16;3.60;99.90
12634;DHT22;6382;48.614;8.880;2023-02-01T18:15:43;4.40;99.90
12634;DHT22;6382;48.614;8.880;2023-02-01T18:18:09;3.70;99.90
12634;DHT22;6382;48.614;8.880;2023-02-01T18:20:36;3.70;99.90
12634;DHT22;6382;48.614;8.880;2023-02-01T18:23:05;3.70;99.90
12634;DHT22;6382;48.614;8.880;2023-02-01T18:25:31;3.70;99.90
12634;DHT22;6382;48.614;8.880;2023-02-01T18:28:03;3.70;99.90
12634;DHT22;6382;48.614;8.880;2023-02-01T18:30:31;3.70;99.90
12634;DHT22;6382;48.614;8.880;2023-02-01T18:32:58;3.80;99.90
12634;DHT22;6382;48.614;8.880;2023-02-01T18:35:26;3.80;99.90
12634;DHT22;6382;48.614;8.880;2023-02-01T18:37:53;3.80;99.90